createdAt,value
2018-07-06T00:00:12.002Z,3.43
2018-07-06T00:02:51.919Z,3.30
2018-07-06T00:05:31.478Z,3.77
2018-07-06T00:08:11.187Z,3.57
2018-07-06T00:10:50.990Z,3.70
2018-07-06T00:13:30.639Z,3.93
2018-07-06T00:16:10.208Z,4.13
2018-07-06T00:18:49.984Z,3.93
2018-07-06T00:21:29.676Z,4.20
2018-07-06T00:24:09.451Z,4.20
2018-07-06T00:26:49.010Z,4.33
2018-07-06T00:29:28.740Z,4.23
2018-07-06T00:32:08.346Z,4.30
2018-07-06T00:34:48.147Z,3.73
2018-07-06T00:37:27.687Z,4.67
2018-07-06T00:40:07.478Z,5.30
2018-07-06T00:42:47.219Z,5.33
2018-07-06T00:45:26.788Z,4.53
2018-07-06T00:48:06.523Z,4.70
2018-07-06T00:50:46.182Z,4.67
2018-07-06T00:53:26.119Z,4.87
2018-07-06T00:56:05.903Z,4.63
2018-07-06T00:58:45.695Z,4.53
2018-07-06T01:01:25.677Z,4.10
2018-07-06T01:04:05.340Z,4.70
2018-07-06T01:06:45.146Z,4.43
2018-07-06T01:09:24.824Z,4.33
2018-07-06T01:12:10.103Z,4.43
2018-07-06T01:14:49.838Z,3.73
2018-07-06T01:17:29.804Z,5.03
2018-07-06T01:20:09.479Z,5.00
2018-07-06T01:22:49.294Z,4.30
2018-07-06T01:25:29.069Z,4.90
2018-07-06T01:28:08.830Z,4.70
2018-07-06T01:30:48.628Z,4.53
2018-07-06T01:33:28.304Z,4.80
2018-07-06T01:36:08.748Z,4.97
2018-07-06T01:38:48.477Z,4.90
2018-07-06T01:41:22.050Z,4.93
2018-07-06T01:44:01.904Z,4.80
2018-07-06T01:46:41.557Z,4.87
2018-07-06T01:49:21.318Z,4.87
2018-07-06T01:52:01.005Z,4.63
2018-07-06T01:54:40.596Z,5.00
2018-07-06T01:57:20.154Z,4.27
2018-07-06T01:59:59.891Z,4.60
2018-07-06T02:02:39.703Z,5.20
2018-07-06T02:05:19.615Z,4.67
2018-07-06T02:07:59.339Z,4.90
2018-07-06T02:10:38.971Z,4.90
2018-07-06T02:13:18.802Z,4.50
2018-07-06T02:15:58.540Z,5.20
2018-07-06T02:18:38.416Z,4.50
2018-07-06T02:21:18.159Z,4.93
2018-07-06T02:23:57.823Z,4.57
2018-07-06T02:26:37.527Z,4.63
2018-07-06T02:29:17.298Z,4.97
2018-07-06T02:31:56.969Z,4.97
2018-07-06T02:34:36.664Z,5.10
2018-07-06T02:37:16.186Z,5.13
2018-07-06T02:39:55.933Z,4.60
2018-07-06T02:42:35.812Z,4.90
2018-07-06T02:45:15.470Z,5.00
2018-07-06T02:47:55.244Z,4.77
2018-07-06T02:50:34.990Z,4.83
2018-07-06T02:53:14.618Z,4.43
2018-07-06T02:55:54.487Z,4.27
2018-07-06T02:58:33.953Z,5.50
2018-07-06T03:01:13.683Z,4.43
2018-07-06T03:03:53.400Z,5.00
2018-07-06T03:06:33.256Z,5.23
2018-07-06T03:09:12.947Z,4.50
2018-07-06T03:11:46.533Z,5.20
2018-07-06T03:14:26.386Z,5.03
2018-07-06T03:17:06.067Z,4.93
2018-07-06T03:19:45.716Z,4.97
2018-07-06T03:22:25.483Z,4.27
2018-07-06T03:25:05.081Z,5.07
2018-07-06T03:27:44.828Z,5.77
2018-07-06T03:30:24.424Z,5.07
2018-07-06T03:33:04.099Z,5.50
2018-07-06T03:35:43.719Z,4.83
2018-07-06T03:38:23.435Z,5.90
2018-07-06T03:41:03.084Z,5.43
2018-07-06T03:43:42.924Z,4.23
2018-07-06T03:46:22.750Z,4.87
2018-07-06T03:49:02.626Z,5.10
2018-07-06T03:51:42.468Z,5.53
2018-07-06T03:54:22.373Z,5.53
2018-07-06T03:57:02.013Z,5.30
2018-07-06T03:59:41.742Z,5.40
2018-07-06T04:02:21.639Z,5.50
2018-07-06T04:05:01.322Z,5.53
2018-07-06T04:07:41.596Z,5.50
2018-07-06T04:10:21.266Z,5.70
2018-07-06T04:13:00.963Z,5.47
2018-07-06T04:15:40.697Z,5.70
2018-07-06T04:18:20.500Z,5.53
2018-07-06T04:21:00.184Z,5.80
2018-07-06T04:23:39.954Z,5.73
2018-07-06T04:26:19.789Z,6.03
2018-07-06T04:28:59.419Z,6.20
2018-07-06T04:31:39.232Z,6.00
2018-07-06T04:34:18.830Z,7.10
2018-07-06T04:36:58.536Z,6.17
2018-07-06T04:39:38.229Z,7.10
2018-07-06T04:42:18.120Z,6.13
2018-07-06T04:44:57.876Z,6.83
2018-07-06T04:47:37.574Z,6.60
2018-07-06T04:50:17.305Z,6.73
2018-07-06T04:52:57.116Z,6.07
2018-07-06T04:55:36.699Z,6.60
2018-07-06T04:58:16.263Z,6.70
2018-07-06T05:00:55.933Z,6.03
2018-07-06T05:03:35.610Z,7.23
2018-07-06T05:06:15.129Z,6.90
2018-07-06T05:08:54.797Z,6.37
2018-07-06T05:11:34.637Z,6.93
2018-07-06T05:14:14.144Z,6.53
2018-07-06T05:16:53.828Z,7.30
2018-07-06T05:19:33.376Z,6.20
2018-07-06T05:22:13.130Z,5.70
2018-07-06T05:24:53.030Z,6.77
2018-07-06T05:27:33.075Z,6.20
2018-07-06T05:30:12.779Z,6.60
2018-07-06T05:32:52.443Z,6.23
2018-07-06T05:35:32.065Z,6.13
2018-07-06T05:38:11.690Z,6.53
2018-07-06T05:40:51.647Z,6.13
2018-07-06T05:43:31.173Z,5.20
2018-07-06T05:46:10.979Z,5.63
2018-07-06T05:48:50.979Z,5.53
2018-07-06T05:51:30.735Z,5.93
2018-07-06T05:54:10.451Z,5.90
2018-07-06T05:56:50.169Z,6.33
2018-07-06T05:59:29.841Z,5.10
2018-07-06T06:03:12.768Z,5.50
2018-07-06T06:05:52.455Z,5.10
2018-07-06T06:08:19.743Z,6.83
2018-07-06T06:10:48.062Z,6.03
2018-07-06T06:13:16.370Z,6.33
2018-07-06T06:15:44.731Z,6.20
2018-07-06T06:18:13.092Z,6.53
2018-07-06T06:20:41.410Z,5.70
2018-07-06T06:23:09.782Z,5.40
2018-07-06T06:25:38.130Z,5.93
2018-07-06T06:28:06.462Z,4.80
2018-07-06T06:30:34.847Z,5.23
2018-07-06T06:33:03.296Z,4.90
2018-07-06T06:35:31.647Z,5.00
2018-07-06T06:38:00.112Z,4.73
2018-07-06T06:40:28.592Z,5.13
2018-07-06T06:42:57.268Z,5.37
2018-07-06T06:45:32.373Z,4.87
2018-07-06T06:48:01.151Z,5.17
2018-07-06T06:54:01.543Z,5.33
2018-07-06T06:56:29.992Z,5.80
2018-07-06T06:58:58.506Z,6.10
2018-07-06T07:01:27.084Z,4.87
2018-07-06T07:03:55.633Z,5.20
2018-07-06T07:06:24.064Z,5.23
2018-07-06T07:08:52.424Z,6.20
2018-07-06T07:11:20.720Z,5.27
2018-07-06T07:13:49.129Z,5.40
2018-07-06T07:16:17.496Z,5.13
2018-07-06T07:18:45.904Z,5.40
2018-07-06T07:21:14.388Z,4.77
2018-07-06T07:23:42.809Z,5.23
2018-07-06T07:26:11.326Z,4.60
2018-07-06T07:28:39.812Z,5.20
2018-07-06T07:31:08.111Z,4.60
2018-07-06T07:33:36.469Z,4.20
2018-07-06T07:36:04.829Z,4.30
2018-07-06T07:38:33.178Z,3.90
2018-07-06T07:41:01.921Z,4.07
2018-07-06T07:43:30.558Z,4.30
2018-07-06T07:45:59.531Z,4.00
2018-07-06T07:48:27.935Z,3.50
2018-07-06T07:51:07.869Z,3.80
2018-07-06T07:53:47.556Z,3.43
2018-07-06T07:56:15.967Z,3.50
2018-07-06T07:58:44.371Z,3.80
2018-07-06T08:01:12.774Z,3.60
2018-07-06T08:03:41.051Z,3.87
2018-07-06T08:06:09.368Z,3.13
2018-07-06T08:08:37.708Z,3.43
2018-07-06T08:11:06.480Z,3.90
2018-07-06T08:13:34.849Z,3.10
2018-07-06T08:16:03.216Z,3.00
2018-07-06T08:18:31.792Z,3.33
2018-07-06T08:21:00.227Z,3.40
2018-07-06T08:23:28.577Z,4.50
2018-07-06T08:25:57.056Z,8.83
2018-07-06T08:28:25.505Z,7.03
2018-07-06T08:30:53.838Z,7.50
2018-07-06T08:33:30.472Z,4.90
2018-07-06T08:37:36.441Z,4.57
2018-07-06T08:40:04.862Z,7.90
2018-07-06T08:42:34.318Z,5.00
2018-07-06T08:45:03.386Z,4.47
2018-07-06T08:47:31.886Z,4.53
2018-07-06T08:50:01.028Z,4.77
2018-07-06T08:52:29.675Z,4.20
2018-07-06T08:54:58.448Z,4.40
2018-07-06T08:57:28.097Z,4.63
2018-07-06T08:59:56.737Z,4.50
2018-07-06T09:02:25.496Z,4.03
2018-07-06T09:04:55.008Z,3.87
2018-07-06T09:07:23.593Z,3.97
2018-07-06T09:09:52.683Z,3.80
2018-07-06T09:12:21.131Z,3.90
2018-07-06T09:14:49.456Z,3.50
2018-07-06T09:17:18.789Z,3.47
2018-07-06T09:19:47.609Z,3.37
2018-07-06T09:22:16.179Z,3.83
2018-07-06T09:24:45.495Z,3.60
2018-07-06T09:27:13.951Z,3.20
2018-07-06T09:29:42.466Z,3.30
2018-07-06T09:32:11.003Z,3.73
2018-07-06T09:34:39.672Z,2.90
2018-07-06T09:37:07.993Z,3.20
2018-07-06T09:39:36.653Z,3.10
2018-07-06T09:42:04.991Z,2.70
2018-07-06T09:44:33.543Z,2.63
2018-07-06T09:47:02.174Z,2.90
2018-07-06T09:49:30.557Z,2.67
2018-07-06T09:51:58.917Z,2.37
2018-07-06T09:54:27.444Z,2.80
2018-07-06T09:56:55.869Z,2.53
2018-07-06T09:59:23.994Z,2.70
2018-07-06T10:01:52.503Z,2.40
2018-07-06T10:04:20.935Z,2.30
2018-07-06T10:06:49.230Z,2.83
2018-07-06T10:09:17.660Z,2.97
2018-07-06T10:11:46.103Z,2.60
2018-07-06T10:14:14.520Z,2.70
2018-07-06T10:16:43.101Z,2.43
2018-07-06T10:19:11.523Z,2.20
2018-07-06T10:21:39.875Z,2.30
2018-07-06T10:24:08.257Z,2.57
2018-07-06T10:26:36.553Z,1.80
2018-07-06T10:29:15.503Z,1.73
2018-07-06T10:31:54.482Z,1.70
2018-07-06T10:34:23.053Z,1.80
2018-07-06T10:36:51.572Z,1.93
2018-07-06T10:39:20.059Z,1.90
2018-07-06T10:41:48.447Z,1.50
2018-07-06T10:44:16.777Z,1.33
2018-07-06T10:46:45.347Z,1.27
2018-07-06T10:49:13.689Z,1.20
2018-07-06T10:51:42.044Z,1.13
2018-07-06T10:54:10.409Z,1.50
2018-07-06T10:56:38.771Z,1.33
2018-07-06T10:59:07.103Z,1.20
2018-07-06T11:01:35.439Z,1.37
2018-07-06T11:04:03.763Z,1.33
2018-07-06T11:06:32.085Z,1.40
2018-07-06T11:09:00.462Z,1.30
2018-07-06T11:11:28.928Z,1.33
2018-07-06T11:13:57.303Z,1.30
2018-07-06T11:16:25.709Z,1.40
2018-07-06T11:18:54.364Z,1.50
2018-07-06T11:21:22.722Z,1.53
2018-07-06T11:23:51.019Z,1.57
2018-07-06T11:26:19.360Z,1.80
2018-07-06T11:28:47.806Z,1.80
2018-07-06T11:31:16.287Z,1.70
2018-07-06T11:33:44.610Z,1.80
2018-07-06T11:36:13.037Z,1.57
2018-07-06T11:38:41.611Z,2.00
2018-07-06T11:41:10.089Z,2.00
2018-07-06T11:43:38.378Z,1.90
2018-07-06T11:46:06.752Z,1.87
2018-07-06T11:48:35.069Z,1.70
2018-07-06T11:51:03.382Z,2.20
2018-07-06T11:53:31.744Z,1.77
2018-07-06T11:56:00.320Z,1.83
2018-07-06T11:58:28.892Z,1.70
2018-07-06T12:00:57.224Z,1.73
2018-07-06T12:03:25.735Z,1.70
2018-07-06T12:05:54.192Z,1.77
2018-07-06T12:08:22.605Z,1.70
2018-07-06T12:10:50.945Z,1.70
2018-07-06T12:13:20.599Z,1.87
2018-07-06T12:15:49.660Z,1.50
2018-07-06T12:18:18.001Z,1.70
2018-07-06T12:20:46.344Z,1.70
2018-07-06T12:23:14.723Z,1.37
2018-07-06T12:25:43.038Z,1.77
2018-07-06T12:28:11.454Z,1.73
2018-07-06T12:30:39.776Z,1.87
2018-07-06T12:33:08.151Z,1.50
2018-07-06T12:35:36.519Z,1.57
2018-07-06T12:38:04.937Z,1.10
2018-07-06T12:40:33.245Z,1.37
2018-07-06T12:43:01.783Z,1.60
2018-07-06T12:45:30.360Z,1.27
2018-07-06T12:47:58.753Z,1.60
2018-07-06T12:50:27.642Z,1.50
2018-07-06T12:52:56.335Z,1.50
2018-07-06T12:55:24.733Z,1.30
2018-07-06T12:57:53.052Z,1.67
2018-07-06T13:00:21.450Z,1.30
2018-07-06T13:02:50.308Z,1.10
2018-07-06T13:05:18.850Z,1.50
2018-07-06T13:07:47.655Z,1.30
2018-07-06T13:10:16.071Z,1.57
2018-07-06T13:12:44.418Z,1.20
2018-07-06T13:15:12.820Z,1.27
2018-07-06T13:17:41.151Z,1.37
2018-07-06T13:20:09.497Z,1.47
2018-07-06T13:22:38.879Z,1.30
2018-07-06T13:25:07.703Z,1.30
2018-07-06T13:27:36.049Z,1.40
2018-07-06T13:30:04.722Z,1.10
2018-07-06T13:32:33.169Z,1.47
2018-07-06T13:35:01.530Z,1.00
2018-07-06T13:37:30.310Z,1.50
2018-07-06T13:39:59.032Z,1.13
2018-07-06T13:42:27.448Z,1.23
2018-07-06T13:44:55.846Z,1.03
2018-07-06T13:47:24.782Z,1.30
2018-07-06T13:49:53.155Z,1.10
2018-07-06T13:52:21.616Z,1.17
2018-07-06T13:54:50.228Z,1.20
2018-07-06T13:57:18.328Z,1.50
2018-07-06T13:59:46.657Z,1.70
2018-07-06T14:02:14.956Z,1.40
2018-07-06T14:04:43.297Z,1.50
2018-07-06T14:07:11.627Z,1.40
2018-07-06T14:09:40.125Z,1.30
2018-07-06T14:12:08.454Z,1.37
2018-07-06T14:14:36.824Z,1.40
2018-07-06T14:17:05.323Z,1.20
2018-07-06T14:19:34.204Z,1.20
2018-07-06T14:22:02.579Z,1.37
2018-07-06T14:24:31.209Z,1.53
2018-07-06T14:26:59.595Z,1.23
2018-07-06T14:29:28.821Z,1.30
2018-07-06T14:31:57.367Z,1.40
2018-07-06T14:34:26.176Z,1.47
2018-07-06T14:36:54.551Z,1.50
2018-07-06T14:39:22.600Z,1.33
2018-07-06T14:41:50.935Z,1.63
2018-07-06T14:44:19.260Z,1.70
2018-07-06T14:46:47.599Z,1.77
2018-07-06T14:49:16.017Z,1.70
2018-07-06T14:51:44.440Z,1.97
2018-07-06T14:54:12.763Z,1.90
2018-07-06T14:56:41.132Z,1.87
2018-07-06T14:59:09.484Z,2.20
2018-07-06T15:01:37.820Z,2.40
2018-07-06T15:04:06.190Z,2.10
2018-07-06T15:06:34.643Z,1.87
2018-07-06T15:09:03.132Z,2.23
2018-07-06T15:11:31.502Z,1.93
2018-07-06T15:13:59.888Z,2.27
2018-07-06T15:16:28.444Z,2.67
2018-07-06T15:18:56.903Z,2.60
2018-07-06T15:21:25.508Z,2.50
2018-07-06T15:23:53.836Z,2.23
2018-07-06T15:26:22.312Z,2.20
2018-07-06T15:28:50.723Z,2.50
2018-07-06T15:31:19.071Z,2.30
2018-07-06T15:33:47.462Z,2.53
2018-07-06T15:36:15.790Z,2.70
2018-07-06T15:38:44.212Z,2.93
2018-07-06T15:41:12.738Z,2.60
2018-07-06T15:43:41.302Z,2.23
2018-07-06T15:46:09.885Z,2.60
2018-07-06T15:48:38.480Z,2.43
2018-07-06T15:51:07.072Z,2.57
2018-07-06T15:53:35.420Z,2.63
2018-07-06T15:56:03.760Z,2.80
2018-07-06T15:58:32.416Z,2.60
2018-07-06T16:01:00.811Z,2.80
2018-07-06T16:03:29.232Z,2.70
2018-07-06T16:05:57.632Z,2.83
2018-07-06T16:08:26.049Z,3.10
2018-07-06T16:10:54.378Z,2.80
2018-07-06T16:13:22.824Z,3.90
2018-07-06T16:15:51.152Z,3.77
2018-07-06T16:18:19.484Z,3.50
2018-07-06T16:20:47.862Z,3.67
2018-07-06T16:23:16.236Z,3.97
2018-07-06T16:25:44.589Z,4.03
2018-07-06T16:28:13.234Z,3.90
2018-07-06T16:30:41.552Z,4.23
2018-07-06T16:33:09.940Z,3.37
2018-07-06T16:35:38.320Z,3.30
2018-07-06T16:38:06.637Z,3.20
2018-07-06T16:40:34.972Z,3.40
2018-07-06T16:43:03.302Z,3.47
2018-07-06T16:45:31.847Z,2.90
2018-07-06T16:48:00.259Z,3.50
2018-07-06T16:50:28.690Z,2.90
2018-07-06T16:52:57.188Z,3.10
2018-07-06T16:55:25.565Z,2.80
2018-07-06T16:57:53.909Z,3.17
2018-07-06T17:00:22.372Z,3.17
2018-07-06T17:02:50.845Z,2.67
2018-07-06T17:05:19.157Z,3.30
2018-07-06T17:07:47.449Z,3.10
2018-07-06T17:10:15.810Z,3.10
2018-07-06T17:12:44.332Z,2.80
2018-07-06T17:15:12.687Z,2.90
2018-07-06T17:17:41.023Z,2.83
2018-07-06T17:20:09.354Z,2.70
2018-07-06T17:22:37.676Z,2.90
2018-07-06T17:25:06.239Z,3.10
2018-07-06T17:27:34.878Z,2.90
2018-07-06T17:30:03.662Z,2.97
2018-07-06T17:32:32.126Z,3.17
2018-07-06T17:35:00.541Z,2.80
2018-07-06T17:37:29.200Z,2.70
2018-07-06T17:39:57.650Z,3.13
2018-07-06T17:42:26.159Z,3.07
2018-07-06T17:44:55.040Z,3.37
2018-07-06T17:47:23.424Z,3.07
2018-07-06T17:49:51.860Z,3.00
2018-07-06T17:52:20.206Z,2.90
2018-07-06T17:54:48.564Z,3.20
2018-07-06T17:57:16.888Z,2.63
2018-07-06T17:59:45.251Z,2.87
2018-07-06T18:02:14.009Z,2.70
2018-07-06T18:04:42.534Z,2.90
2018-07-06T18:07:10.940Z,2.80
2018-07-06T18:09:39.440Z,3.30
2018-07-06T18:12:07.793Z,3.27
2018-07-06T18:14:36.256Z,3.00
2018-07-06T18:17:04.327Z,3.27
2018-07-06T18:19:33.274Z,3.00
2018-07-06T18:22:02.006Z,2.60
2018-07-06T18:24:30.879Z,2.70
2018-07-06T18:26:59.360Z,3.00
2018-07-06T18:29:28.469Z,2.73
2018-07-06T18:31:57.407Z,2.80
2018-07-06T18:34:26.308Z,3.20
2018-07-06T18:36:55.441Z,2.70
2018-07-06T18:39:24.045Z,2.43
2018-07-06T18:41:52.439Z,2.93
2018-07-06T18:44:20.852Z,2.87
2018-07-06T18:46:49.219Z,3.23
2018-07-06T18:49:17.548Z,2.70
2018-07-06T18:51:45.972Z,2.80
2018-07-06T18:54:14.305Z,2.57
2018-07-06T18:56:43.124Z,3.10
2018-07-06T18:59:11.493Z,3.10
2018-07-06T19:01:39.836Z,3.00
2018-07-06T19:04:08.338Z,3.20
2018-07-06T19:06:36.649Z,2.73
2018-07-06T19:09:05.714Z,2.90
2018-07-06T19:11:34.152Z,3.00
2018-07-06T19:14:03.101Z,3.03
2018-07-06T19:16:32.180Z,3.20
2018-07-06T19:19:00.893Z,2.67
2018-07-06T19:21:29.580Z,3.00
2018-07-06T19:23:58.493Z,3.30
2018-07-06T19:26:27.345Z,2.80
2018-07-06T19:28:55.894Z,3.10
2018-07-06T19:31:24.255Z,3.13
2018-07-06T19:33:53.305Z,2.77
2018-07-06T19:36:21.864Z,2.93
2018-07-06T19:38:50.896Z,2.80
2018-07-06T19:41:19.665Z,2.53
2018-07-06T19:43:47.957Z,2.87
2018-07-06T19:46:16.680Z,2.80
2018-07-06T19:48:45.065Z,3.60
2018-07-06T19:51:13.449Z,3.40
2018-07-06T19:53:41.811Z,3.10
2018-07-06T19:56:10.375Z,3.00
2018-07-06T19:58:38.826Z,3.37
2018-07-06T20:01:07.208Z,3.30
2018-07-06T20:03:35.497Z,3.50
2018-07-06T20:06:04.002Z,3.60
2018-07-06T20:08:32.753Z,3.77
2018-07-06T20:11:01.418Z,3.57
2018-07-06T20:13:30.645Z,3.37
2018-07-06T20:15:59.395Z,3.20
2018-07-06T20:18:28.166Z,3.20
2018-07-06T20:20:56.811Z,3.33
2018-07-06T20:23:25.346Z,3.00
2018-07-06T20:25:53.847Z,3.70
2018-07-06T20:28:22.189Z,3.73
2018-07-06T20:30:50.951Z,3.50
2018-07-06T20:33:19.642Z,4.03
2018-07-06T20:35:47.959Z,3.83
2018-07-06T20:38:16.322Z,4.30
2018-07-06T20:40:45.528Z,3.57
2018-07-06T20:43:13.964Z,3.90
2018-07-06T20:45:43.308Z,3.80
2018-07-06T20:48:11.749Z,3.87
2018-07-06T20:50:40.166Z,3.83
2018-07-06T20:53:08.713Z,4.20
2018-07-06T20:55:37.185Z,3.70
2018-07-06T20:58:05.668Z,4.20
2018-07-06T21:00:34.046Z,4.17
2018-07-06T21:03:02.861Z,4.00
2018-07-06T21:05:32.115Z,4.10
2018-07-06T21:08:00.628Z,4.30
2018-07-06T21:10:29.212Z,4.47
2018-07-06T21:12:57.619Z,4.30
2018-07-06T21:15:26.272Z,3.70
2018-07-06T21:17:54.697Z,4.07
2018-07-06T21:20:23.126Z,4.27
2018-07-06T21:22:51.472Z,4.23
2018-07-06T21:25:19.899Z,4.40
2018-07-06T21:27:48.216Z,4.00
2018-07-06T21:30:16.639Z,4.57
2018-07-06T21:32:45.021Z,3.93
2018-07-06T21:35:13.642Z,4.87
2018-07-06T21:37:42.009Z,4.30
2018-07-06T21:40:10.416Z,4.37
2018-07-06T21:42:38.832Z,4.80
2018-07-06T21:45:07.501Z,4.60
2018-07-06T21:47:35.853Z,5.00
2018-07-06T21:50:04.273Z,4.40
2018-07-06T21:52:32.692Z,4.13
2018-07-06T21:55:01.395Z,4.30
2018-07-06T21:57:29.851Z,4.60
2018-07-06T21:59:58.416Z,4.87
2018-07-06T22:02:27.235Z,4.83
2018-07-06T22:05:02.440Z,4.53
2018-07-06T22:07:31.001Z,4.30
2018-07-06T22:09:59.405Z,4.60
2018-07-06T22:12:27.834Z,4.43
2018-07-06T22:14:56.281Z,5.37
2018-07-06T22:17:24.624Z,4.77
2018-07-06T22:19:53.020Z,4.47
2018-07-06T22:22:21.426Z,4.40
2018-07-06T22:24:49.786Z,4.43
2018-07-06T22:27:18.192Z,4.93
2018-07-06T22:29:46.569Z,4.47
2018-07-06T22:32:14.906Z,5.23
2018-07-06T22:34:43.312Z,4.83
2018-07-06T22:37:11.712Z,4.70
2018-07-06T22:39:40.047Z,5.40
2018-07-06T22:42:08.362Z,4.87
2018-07-06T22:44:36.740Z,4.60
2018-07-06T22:47:05.117Z,5.13
2018-07-06T22:49:33.552Z,4.40
2018-07-06T22:52:01.969Z,4.63
2018-07-06T22:54:30.318Z,5.03
2018-07-06T22:56:58.427Z,4.57
2018-07-06T22:59:26.829Z,4.80
2018-07-06T23:01:55.234Z,4.77
2018-07-06T23:04:23.584Z,5.37
2018-07-06T23:06:51.930Z,4.83
2018-07-06T23:09:20.305Z,4.80
2018-07-06T23:11:48.780Z,5.10
2018-07-06T23:14:17.164Z,4.73
2018-07-06T23:16:45.480Z,4.53
2018-07-06T23:19:13.852Z,4.30
2018-07-06T23:21:42.378Z,4.57
2018-07-06T23:24:10.947Z,5.10
2018-07-06T23:26:39.332Z,5.40
2018-07-06T23:29:07.667Z,5.17
2018-07-06T23:31:36.046Z,5.40
2018-07-06T23:34:04.498Z,4.60
2018-07-06T23:36:32.850Z,5.17
2018-07-06T23:39:01.564Z,5.50
2018-07-06T23:41:29.867Z,5.20
2018-07-06T23:43:58.252Z,5.27
2018-07-06T23:46:26.739Z,4.93
2018-07-06T23:48:55.146Z,5.23
2018-07-06T23:51:23.441Z,5.10
2018-07-06T23:53:51.789Z,5.30
2018-07-06T23:56:20.218Z,5.47
2018-07-06T23:58:48.741Z,5.60
